createdAt,value
2019-06-01T00:00:10.318Z,13.90
2019-06-01T00:00:32.619Z,24.95
2019-06-01T00:01:07.810Z,19.20
2019-06-01T00:01:42.520Z,21.80
2019-06-01T00:02:17.670Z,18.32
2019-06-01T00:02:56.262Z,16.87
2019-06-01T00:03:28.915Z,16.80
2019-06-01T00:04:03.836Z,16.32
2019-06-01T00:04:39.017Z,13.62
2019-06-01T00:05:14.104Z,18.92
2019-06-01T00:05:49.333Z,16.45
2019-06-01T00:06:24.137Z,19.87
2019-06-01T00:06:58.758Z,21.02
2019-06-01T00:07:33.535Z,19.45
2019-06-01T00:08:08.598Z,13.03
2019-06-01T00:08:43.301Z,17.98
2019-06-01T00:09:18.363Z,22.62
2019-06-01T00:09:53.646Z,17.67
2019-06-01T00:10:28.372Z,16.12
2019-06-01T00:11:03.281Z,15.35
2019-06-01T00:11:39.200Z,23.02
2019-06-01T00:12:13.765Z,21.80
2019-06-01T00:12:49.554Z,29.57
2019-06-01T00:13:24.758Z,19.42
2019-06-01T00:13:59.588Z,18.73
2019-06-01T00:14:34.575Z,33.95
2019-06-01T00:15:10.764Z,72.62
2019-06-01T00:15:46.142Z,104.90
2019-06-01T00:16:21.444Z,67.92
2019-06-01T00:16:56.763Z,28.47
2019-06-01T00:17:31.595Z,21.60
2019-06-01T00:18:06.639Z,22.70
2019-06-01T00:18:41.860Z,17.85
2019-06-01T00:19:16.642Z,13.32
2019-06-01T00:19:51.630Z,18.00
2019-06-01T00:20:26.651Z,21.33
2019-06-01T00:21:01.220Z,17.45
2019-06-01T00:21:35.939Z,21.60
2019-06-01T00:22:10.598Z,24.60
2019-06-01T00:22:45.496Z,23.05
2019-06-01T00:23:20.260Z,27.87
2019-06-01T00:23:55.162Z,22.67
2019-06-01T00:24:29.784Z,22.13
2019-06-01T00:25:05.014Z,17.73
2019-06-01T00:25:40.417Z,22.22
2019-06-01T00:26:15.043Z,20.82
2019-06-01T00:26:49.924Z,16.35
2019-06-01T00:27:24.978Z,14.83
2019-06-01T00:27:59.706Z,20.48
2019-06-01T00:28:34.441Z,23.12
2019-06-01T00:29:09.645Z,20.80
2019-06-01T00:29:44.743Z,23.57
2019-06-01T00:30:26.895Z,24.70
2019-06-01T00:30:56.344Z,21.93
2019-06-01T00:31:30.879Z,17.20
2019-06-01T00:32:05.761Z,17.35
2019-06-01T00:32:40.994Z,18.67
2019-06-01T00:33:15.713Z,17.17
2019-06-01T00:33:51.484Z,16.90
2019-06-01T00:34:26.835Z,20.17
2019-06-01T00:35:01.463Z,27.80
2019-06-01T00:35:36.784Z,101.42
2019-06-01T00:36:11.831Z,56.65
2019-06-01T00:36:47.718Z,17.57
2019-06-01T00:37:22.414Z,39.05
2019-06-01T00:37:57.348Z,70.03
2019-06-01T00:38:31.818Z,106.55
2019-06-01T00:39:08.007Z,24.92
2019-06-01T00:39:43.708Z,25.15
2019-06-01T00:40:18.359Z,25.32
2019-06-01T00:40:53.208Z,19.98
2019-06-01T00:41:28.216Z,18.65
2019-06-01T00:42:02.897Z,20.95
2019-06-01T00:42:37.756Z,15.93
2019-06-01T00:43:12.763Z,26.12
2019-06-01T00:43:48.702Z,18.73
2019-06-01T00:44:23.652Z,19.67
2019-06-01T00:45:00.283Z,19.40
2019-06-01T00:45:34.771Z,22.75
2019-06-01T00:46:09.534Z,28.35
2019-06-01T00:46:44.555Z,31.02
2019-06-01T00:47:19.188Z,24.10
2019-06-01T00:47:53.891Z,28.95
2019-06-01T00:48:28.875Z,31.17
2019-06-01T00:49:03.217Z,23.00
2019-06-01T00:49:38.079Z,15.50
2019-06-01T00:50:13.045Z,16.48
2019-06-01T00:50:49.031Z,18.15
2019-06-01T00:51:23.972Z,18.98
2019-06-01T00:51:58.957Z,20.68
2019-06-01T00:52:33.503Z,16.77
2019-06-01T00:53:08.263Z,15.25
2019-06-01T00:53:43.412Z,18.55
2019-06-01T00:54:17.808Z,21.60
2019-06-01T00:54:53.593Z,22.27
2019-06-01T00:55:28.813Z,21.80
2019-06-01T00:56:03.325Z,17.73
2019-06-01T00:56:38.098Z,20.60
2019-06-01T00:57:13.129Z,19.27
2019-06-01T00:57:47.659Z,16.80
2019-06-01T00:58:22.319Z,16.52
2019-06-01T00:58:57.330Z,22.70
2019-06-01T00:59:32.056Z,18.80
2019-06-01T01:00:07.672Z,17.75
2019-06-01T01:00:44.198Z,22.52
2019-06-01T01:01:18.907Z,19.98
2019-06-01T01:01:54.221Z,21.17
2019-06-01T01:02:29.311Z,22.85
2019-06-01T01:03:03.954Z,28.52
2019-06-01T01:03:38.834Z,23.32
2019-06-01T01:04:13.742Z,26.48
2019-06-01T01:04:57.459Z,26.40
2019-06-01T01:05:32.689Z,21.82
2019-06-01T01:06:07.701Z,27.60
2019-06-01T01:06:42.366Z,19.92
2019-06-01T01:07:17.163Z,19.52
2019-06-01T01:07:53.418Z,19.42
2019-06-01T01:08:27.997Z,20.48
2019-06-01T01:09:02.850Z,23.55
2019-06-01T01:09:37.654Z,19.75
2019-06-01T01:10:12.395Z,18.55
2019-06-01T01:10:47.275Z,22.77
2019-06-01T01:11:22.185Z,26.80
2019-06-01T01:11:56.921Z,25.75
2019-06-01T01:12:32.707Z,34.48
2019-06-01T01:13:11.635Z,29.05
2019-06-01T01:13:47.179Z,19.95
2019-06-01T01:14:22.124Z,23.40
2019-06-01T01:14:57.136Z,27.20
2019-06-01T01:15:31.647Z,24.50
2019-06-01T01:16:06.445Z,18.12
2019-06-01T01:16:41.466Z,15.38
2019-06-01T01:17:16.014Z,20.25
2019-06-01T01:17:51.920Z,19.73
2019-06-01T01:18:26.972Z,20.23
2019-06-01T01:19:01.399Z,16.15
2019-06-01T01:19:36.140Z,17.30
2019-06-01T01:20:11.181Z,17.80
2019-06-01T01:20:46.001Z,20.37
2019-06-01T01:21:20.833Z,21.52
2019-06-01T01:21:57.031Z,16.70
2019-06-01T01:22:31.445Z,28.85
2019-06-01T01:23:06.555Z,28.85
2019-06-01T01:23:41.463Z,32.48
2019-06-01T01:24:16.055Z,33.92
2019-06-01T01:24:50.567Z,33.78
2019-06-01T01:25:25.570Z,34.15
2019-06-01T01:26:00.075Z,20.45
2019-06-01T01:26:35.098Z,19.80
2019-06-01T01:27:10.103Z,17.52
2019-06-01T01:27:44.658Z,15.70
2019-06-01T01:28:19.668Z,17.70
2019-06-01T01:28:54.953Z,17.00
2019-06-01T01:29:29.613Z,17.27
2019-06-01T01:30:05.119Z,23.60
2019-06-01T01:30:40.293Z,18.70
2019-06-01T01:31:14.863Z,22.40
2019-06-01T01:31:49.594Z,22.25
2019-06-01T01:32:24.485Z,19.67
2019-06-01T01:32:59.579Z,27.87
2019-06-01T01:33:34.216Z,21.37
2019-06-01T01:34:09.175Z,19.48
2019-06-01T01:34:43.652Z,22.62
2019-06-01T01:35:18.474Z,23.92
2019-06-01T01:35:54.225Z,16.75
2019-06-01T01:36:28.807Z,26.55
2019-06-01T01:37:03.598Z,22.40
2019-06-01T01:37:38.465Z,21.90
2019-06-01T01:38:12.754Z,21.57
2019-06-01T01:38:48.303Z,25.77
2019-06-01T01:39:23.606Z,22.13
2019-06-01T01:39:58.618Z,25.97
2019-06-01T01:40:33.436Z,21.45
2019-06-01T01:41:08.472Z,21.27
2019-06-01T01:41:42.916Z,19.27
2019-06-01T01:42:17.518Z,31.02
2019-06-01T01:42:52.755Z,23.15
2019-06-01T01:43:27.255Z,27.98
2019-06-01T01:44:02.009Z,23.52
2019-06-01T01:44:36.873Z,22.27
2019-06-01T01:45:11.770Z,16.48
2019-06-01T01:45:46.456Z,18.35
2019-06-01T01:46:21.510Z,19.30
2019-06-01T01:46:56.980Z,28.00
2019-06-01T01:47:32.015Z,20.10
2019-06-01T01:48:07.075Z,22.52
2019-06-01T01:48:41.703Z,27.20
2019-06-01T01:49:16.408Z,19.25
2019-06-01T01:49:52.090Z,27.82
2019-06-01T01:50:27.881Z,24.10
2019-06-01T01:51:02.796Z,22.90
2019-06-01T01:51:37.874Z,25.75
2019-06-01T01:52:12.261Z,33.88
2019-06-01T01:52:46.855Z,40.38
2019-06-01T01:53:21.647Z,37.38
2019-06-01T01:53:56.669Z,37.42
2019-06-01T01:54:31.415Z,24.77
2019-06-01T01:55:07.303Z,29.30
2019-06-01T01:55:42.294Z,31.30
2019-06-01T01:56:16.985Z,18.57
2019-06-01T01:56:52.151Z,25.75
2019-06-01T01:57:26.795Z,22.95
2019-06-01T01:58:01.862Z,25.97
2019-06-01T01:58:36.865Z,28.98
2019-06-01T01:59:11.472Z,30.35
2019-06-01T01:59:46.025Z,47.78
2019-06-01T02:00:36.189Z,56.70
2019-06-01T02:01:22.188Z,40.88
2019-06-01T02:01:46.759Z,21.73
2019-06-01T02:02:21.553Z,42.23
2019-06-01T02:02:56.064Z,18.10
2019-06-01T02:03:30.825Z,16.67
2019-06-01T02:04:06.156Z,18.20
2019-06-01T02:04:40.784Z,17.25
2019-06-01T02:05:15.712Z,27.62
2019-06-01T02:05:54.928Z,23.52
2019-06-01T02:06:29.583Z,18.50
2019-06-01T02:07:04.604Z,26.05
2019-06-01T02:07:39.465Z,17.37
2019-06-01T02:08:14.145Z,17.00
2019-06-01T02:08:48.781Z,21.50
2019-06-01T02:09:23.709Z,19.35
2019-06-01T02:09:59.257Z,24.30
2019-06-01T02:10:34.140Z,28.25
2019-06-01T02:11:10.049Z,23.62
2019-06-01T02:11:44.502Z,16.65
2019-06-01T02:12:19.331Z,22.10
2019-06-01T02:12:55.370Z,26.15
2019-06-01T02:13:30.171Z,23.62
2019-06-01T02:14:05.186Z,31.27
2019-06-01T02:14:40.103Z,98.75
2019-06-01T02:15:16.317Z,334.62
2019-06-01T02:15:52.222Z,152.78
2019-06-01T02:16:27.443Z,294.13
2019-06-01T02:17:02.532Z,271.55
2019-06-01T02:17:37.480Z,268.88
2019-06-01T02:18:12.734Z,176.25
2019-06-01T02:18:47.315Z,126.50
2019-06-01T02:19:21.982Z,140.77
2019-06-01T02:19:56.883Z,44.50
2019-06-01T02:20:31.661Z,47.10
2019-06-01T02:21:06.559Z,20.62
2019-06-01T02:21:41.571Z,24.52
2019-06-01T02:22:16.003Z,24.92
2019-06-01T02:22:50.438Z,22.40
2019-06-01T02:23:25.242Z,22.25
2019-06-01T02:24:01.262Z,24.47
2019-06-01T02:24:36.024Z,19.02
2019-06-01T02:25:11.101Z,23.25
2019-06-01T02:25:45.832Z,26.15
2019-06-01T02:26:20.653Z,21.35
2019-06-01T02:26:57.119Z,19.70
2019-06-01T02:27:31.985Z,14.58
2019-06-01T02:28:06.833Z,17.82
2019-06-01T02:28:41.648Z,21.30
2019-06-01T02:29:16.246Z,17.65
2019-06-01T02:29:50.967Z,14.80
2019-06-01T02:30:26.473Z,19.55
2019-06-01T02:31:02.047Z,14.20
2019-06-01T02:31:42.487Z,13.62
2019-06-01T02:32:13.566Z,21.23
2019-06-01T02:32:48.035Z,24.77
2019-06-01T02:33:22.735Z,14.95
2019-06-01T02:33:58.753Z,19.25
2019-06-01T02:34:33.726Z,15.85
2019-06-01T02:35:09.126Z,18.87
2019-06-01T02:35:44.098Z,19.67
2019-06-01T02:36:18.675Z,17.00
2019-06-01T02:36:54.355Z,17.02
2019-06-01T02:37:29.164Z,16.27
2019-06-01T02:38:05.737Z,16.55
2019-06-01T02:38:40.209Z,16.75
2019-06-01T02:39:15.526Z,18.67
2019-06-01T02:39:50.003Z,23.85
2019-06-01T02:40:26.521Z,25.20
2019-06-01T02:41:03.112Z,23.18
2019-06-01T02:41:37.815Z,29.72
2019-06-01T02:42:13.875Z,37.20
2019-06-01T02:42:49.399Z,30.95
2019-06-01T02:43:24.040Z,30.65
2019-06-01T02:43:59.158Z,41.30
2019-06-01T02:44:33.948Z,154.95
2019-06-01T02:45:12.004Z,142.28
2019-06-01T02:45:46.758Z,81.70
2019-06-01T02:46:21.957Z,52.20
2019-06-01T02:46:57.046Z,35.35
2019-06-01T02:47:31.977Z,30.40
2019-06-01T02:48:07.661Z,47.93
2019-06-01T02:48:42.265Z,48.87
2019-06-01T02:49:17.043Z,114.85
2019-06-01T02:49:52.079Z,66.42
2019-06-01T02:50:26.701Z,12.05
2019-06-01T02:51:01.807Z,14.00
2019-06-01T02:51:37.239Z,16.32
2019-06-01T02:52:11.620Z,21.45
2019-06-01T02:52:46.223Z,24.57
2019-06-01T02:53:21.018Z,26.00
2019-06-01T02:53:55.683Z,21.07
2019-06-01T02:54:30.402Z,19.85
2019-06-01T02:55:06.529Z,22.27
2019-06-01T02:55:41.192Z,21.12
2019-06-01T02:56:15.904Z,23.00
2019-06-01T02:56:50.835Z,22.65
2019-06-01T02:57:25.455Z,49.18
2019-06-01T02:58:00.409Z,135.60
2019-06-01T02:58:35.265Z,169.53
2019-06-01T02:59:09.860Z,105.55
2019-06-01T02:59:44.468Z,22.13
2019-06-01T03:00:25.971Z,32.73
2019-06-01T03:01:22.850Z,36.08
2019-06-01T03:02:05.005Z,18.62
2019-06-01T03:02:35.751Z,21.90
2019-06-01T03:03:10.435Z,18.52
2019-06-01T03:03:45.413Z,22.45
2019-06-01T03:04:20.600Z,21.25
2019-06-01T03:04:57.043Z,19.73
2019-06-01T03:05:32.065Z,25.25
2019-06-01T03:06:09.132Z,24.52
2019-06-01T03:06:44.785Z,28.27
2019-06-01T03:07:20.054Z,27.77
2019-06-01T03:07:55.782Z,21.52
2019-06-01T03:08:32.045Z,29.00
2019-06-01T03:09:10.169Z,18.80
2019-06-01T03:09:46.379Z,17.40
2019-06-01T03:10:21.075Z,21.87
2019-06-01T03:10:57.747Z,20.52
2019-06-01T03:11:38.336Z,18.17
2019-06-01T03:12:15.518Z,18.52
2019-06-01T03:12:53.239Z,20.05
2019-06-01T03:13:30.226Z,19.42
2019-06-01T03:14:06.729Z,18.65
2019-06-01T03:14:43.149Z,18.98
2019-06-01T03:15:18.511Z,17.35
2019-06-01T03:15:55.169Z,19.55
2019-06-01T03:16:30.826Z,18.15
2019-06-01T03:17:06.028Z,17.48
2019-06-01T03:17:44.551Z,19.00
2019-06-01T03:18:21.605Z,19.92
2019-06-01T03:19:01.881Z,18.87
2019-06-01T03:19:40.341Z,14.78
2019-06-01T03:20:15.855Z,21.90
2019-06-01T03:20:52.439Z,22.90
2019-06-01T03:21:30.776Z,18.67
2019-06-01T03:22:08.646Z,22.10
2019-06-01T03:22:44.481Z,19.95
2019-06-01T03:23:20.653Z,23.62
2019-06-01T03:23:58.321Z,16.87
2019-06-01T03:24:37.233Z,18.62
2019-06-01T03:25:12.682Z,17.73
2019-06-01T03:25:51.336Z,16.52
2019-06-01T03:26:29.225Z,15.03
2019-06-01T03:27:06.238Z,21.33
2019-06-01T03:27:44.519Z,20.20
2019-06-01T03:28:22.264Z,20.52
2019-06-01T03:29:00.128Z,17.98
2019-06-01T03:29:39.720Z,20.92
2019-06-01T03:30:15.642Z,18.25
2019-06-01T03:30:50.376Z,19.98
2019-06-01T03:31:25.015Z,15.65
2019-06-01T03:32:19.177Z,16.65
2019-06-01T03:32:37.569Z,14.83
2019-06-01T03:33:14.109Z,19.80
2019-06-01T03:33:49.249Z,16.05
2019-06-01T03:34:23.772Z,18.20
2019-06-01T03:34:58.582Z,20.40
2019-06-01T03:35:33.875Z,17.48
2019-06-01T03:36:09.068Z,17.62
2019-06-01T03:36:44.497Z,16.73
2019-06-01T03:37:19.571Z,18.50
2019-06-01T03:37:54.298Z,17.67
2019-06-01T03:38:29.833Z,21.42
2019-06-01T03:39:06.723Z,20.50
2019-06-01T03:39:43.675Z,21.95
2019-06-01T03:40:23.867Z,15.72
2019-06-01T03:40:55.196Z,15.35
2019-06-01T03:41:29.833Z,15.98
2019-06-01T03:42:05.205Z,15.10
2019-06-01T03:42:40.927Z,13.85
2019-06-01T03:43:16.329Z,16.57
2019-06-01T03:43:51.177Z,18.48
2019-06-01T03:44:26.163Z,18.35
2019-06-01T03:45:01.353Z,18.62
2019-06-01T03:45:36.163Z,15.75
2019-06-01T03:46:11.122Z,18.10
2019-06-01T03:46:46.001Z,15.03
2019-06-01T03:47:21.155Z,17.07
2019-06-01T03:47:56.413Z,18.62
2019-06-01T03:48:31.021Z,14.38
2019-06-01T03:49:06.045Z,14.50
2019-06-01T03:49:41.171Z,17.98
2019-06-01T03:50:15.875Z,14.28
2019-06-01T03:50:50.617Z,17.48
2019-06-01T03:51:25.663Z,16.93
2019-06-01T03:52:00.597Z,15.15
2019-06-01T03:52:35.282Z,15.95
2019-06-01T03:53:10.159Z,15.10
2019-06-01T03:53:44.773Z,12.53
2019-06-01T03:54:19.593Z,17.77
2019-06-01T03:54:54.487Z,17.07
2019-06-01T03:55:29.040Z,16.75
2019-06-01T03:56:04.869Z,12.82
2019-06-01T03:56:40.384Z,11.55
2019-06-01T03:57:14.866Z,13.62
2019-06-01T03:57:49.676Z,13.83
2019-06-01T03:58:24.575Z,13.58
2019-06-01T03:58:59.045Z,12.60
2019-06-01T03:59:33.854Z,12.63
2019-06-01T04:00:09.432Z,9.38
2019-06-01T04:00:44.361Z,11.12
2019-06-01T04:01:18.934Z,11.73
2019-06-01T04:01:53.942Z,11.65
2019-06-01T04:02:33.226Z,15.05
2019-06-01T04:03:05.117Z,11.18
2019-06-01T04:03:40.120Z,15.63
2019-06-01T04:04:14.964Z,10.68
2019-06-01T04:04:49.748Z,10.65
2019-06-01T04:05:24.825Z,11.00
2019-06-01T04:05:59.355Z,13.18
2019-06-01T04:06:34.016Z,13.90
2019-06-01T04:07:08.927Z,11.10
2019-06-01T04:07:43.636Z,9.55
2019-06-01T04:08:18.555Z,12.28
2019-06-01T04:08:53.534Z,11.28
2019-06-01T04:09:27.984Z,13.40
2019-06-01T04:10:03.906Z,12.80
2019-06-01T04:10:39.023Z,11.22
2019-06-01T04:11:13.768Z,12.03
2019-06-01T04:11:48.694Z,14.07
2019-06-01T04:12:23.644Z,11.57
2019-06-01T04:12:58.213Z,12.18
2019-06-01T04:13:33.021Z,11.75
2019-06-01T04:14:08.063Z,11.93
2019-06-01T04:14:42.651Z,15.32
2019-06-01T04:15:17.630Z,13.88
2019-06-01T04:15:52.771Z,13.95
2019-06-01T04:16:27.380Z,10.53
2019-06-01T04:17:02.227Z,14.68
2019-06-01T04:17:37.412Z,12.53
2019-06-01T04:18:13.918Z,11.18
2019-06-01T04:18:48.545Z,14.58
2019-06-01T04:19:23.979Z,14.63
2019-06-01T04:19:58.485Z,10.18
2019-06-01T04:20:33.167Z,14.68
2019-06-01T04:21:08.210Z,10.90
2019-06-01T04:21:43.107Z,14.15
2019-06-01T04:22:17.730Z,12.93
2019-06-01T04:22:52.753Z,12.25
2019-06-01T04:23:27.451Z,11.22
2019-06-01T04:24:02.186Z,13.65
2019-06-01T04:24:37.043Z,15.20
2019-06-01T04:25:12.328Z,13.30
2019-06-01T04:25:47.132Z,15.18
2019-06-01T04:26:22.630Z,13.70
2019-06-01T04:26:57.301Z,19.77
2019-06-01T04:27:31.997Z,14.53
2019-06-01T04:28:08.663Z,15.40
2019-06-01T04:28:43.195Z,17.02
2019-06-01T04:29:17.872Z,14.30
2019-06-01T04:29:52.807Z,20.27
2019-06-01T04:30:28.379Z,16.25
2019-06-01T04:31:04.568Z,19.55
2019-06-01T04:31:39.595Z,14.78
2019-06-01T04:32:14.225Z,17.98
2019-06-01T04:32:50.498Z,21.90
2019-06-01T04:33:25.705Z,17.87
2019-06-01T04:34:00.275Z,19.80
2019-06-01T04:34:35.768Z,18.37
2019-06-01T04:35:11.188Z,18.55
2019-06-01T04:35:45.961Z,19.67
2019-06-01T04:36:20.802Z,17.73
2019-06-01T04:36:55.593Z,16.95
2019-06-01T04:37:30.009Z,17.20
2019-06-01T04:38:05.090Z,15.08
2019-06-01T04:38:40.052Z,17.70
2019-06-01T04:39:14.792Z,18.87
2019-06-01T04:39:49.677Z,13.50
2019-06-01T04:40:24.799Z,15.75
2019-06-01T04:40:59.327Z,17.42
2019-06-01T04:41:34.166Z,17.48
2019-06-01T04:42:09.740Z,17.20
2019-06-01T04:42:44.626Z,19.87
2019-06-01T04:43:19.309Z,24.80
2019-06-01T04:43:54.328Z,22.87
2019-06-01T04:44:29.002Z,21.73
2019-06-01T04:45:04.379Z,23.87
2019-06-01T04:45:39.315Z,19.73
2019-06-01T04:46:14.442Z,25.65
2019-06-01T04:46:49.412Z,24.52
2019-06-01T04:47:24.525Z,20.40
2019-06-01T04:47:59.472Z,22.98
2019-06-01T04:48:34.168Z,22.30
2019-06-01T04:49:09.166Z,20.52
2019-06-01T04:49:43.573Z,20.80
2019-06-01T04:50:18.525Z,19.87
2019-06-01T04:50:53.444Z,23.15
2019-06-01T04:51:28.021Z,19.73
2019-06-01T04:52:02.816Z,22.58
2019-06-01T04:52:37.689Z,23.07
2019-06-01T04:53:13.431Z,22.20
2019-06-01T04:53:48.350Z,20.65
2019-06-01T04:54:23.295Z,22.82
2019-06-01T04:54:57.661Z,19.20
2019-06-01T04:55:32.515Z,17.62
2019-06-01T04:56:08.884Z,19.32
2019-06-01T04:56:43.765Z,21.35
2019-06-01T04:57:18.615Z,17.55
2019-06-01T04:57:53.528Z,18.45
2019-06-01T04:58:28.517Z,19.82
2019-06-01T04:59:03.245Z,18.62
2019-06-01T04:59:38.353Z,20.60
2019-06-01T05:00:25.735Z,24.63
2019-06-01T05:00:51.028Z,21.15
2019-06-01T05:01:26.276Z,18.00
2019-06-01T05:02:00.765Z,19.40
2019-06-01T05:02:35.567Z,19.37
2019-06-01T05:03:11.910Z,17.82
2019-06-01T05:03:46.891Z,17.52
2019-06-01T05:04:21.595Z,20.90
2019-06-01T05:04:56.621Z,18.55
2019-06-01T05:05:31.064Z,16.77
2019-06-01T05:06:07.188Z,18.30
2019-06-01T05:06:42.219Z,21.50
2019-06-01T05:07:16.582Z,18.62
2019-06-01T05:07:51.400Z,21.50
2019-06-01T05:08:26.312Z,17.30
2019-06-01T05:09:00.741Z,18.65
2019-06-01T05:09:35.435Z,18.15
2019-06-01T05:10:11.764Z,19.80
2019-06-01T05:10:46.098Z,23.67
2019-06-01T05:11:20.925Z,17.92
2019-06-01T05:11:55.849Z,18.45
2019-06-01T05:12:30.350Z,17.32
2019-06-01T05:13:05.387Z,18.12
2019-06-01T05:13:40.299Z,22.15
2019-06-01T05:14:16.558Z,19.70
2019-06-01T05:14:51.175Z,17.17
2019-06-01T05:15:26.268Z,17.10
2019-06-01T05:16:01.005Z,16.62
2019-06-01T05:16:35.848Z,20.45
2019-06-01T05:17:12.920Z,15.70
2019-06-01T05:17:47.069Z,14.50
2019-06-01T05:18:22.016Z,16.20
2019-06-01T05:18:56.776Z,14.53
2019-06-01T05:19:31.479Z,16.97
2019-06-01T05:20:08.170Z,15.35
2019-06-01T05:20:44.436Z,17.40
2019-06-01T05:21:19.563Z,17.82
2019-06-01T05:21:54.324Z,14.75
2019-06-01T05:22:29.186Z,18.35
2019-06-01T05:23:03.775Z,12.78
2019-06-01T05:23:38.605Z,14.50
2019-06-01T05:24:13.406Z,15.35
2019-06-01T05:24:48.181Z,14.43
2019-06-01T05:25:23.167Z,14.50
2019-06-01T05:25:58.083Z,15.13
2019-06-01T05:26:32.657Z,17.30
2019-06-01T05:27:08.882Z,13.83
2019-06-01T05:27:43.958Z,18.17
2019-06-01T05:28:18.801Z,18.42
2019-06-01T05:28:53.675Z,13.60
2019-06-01T05:29:28.713Z,15.80
2019-06-01T05:30:03.279Z,17.30
2019-06-01T05:30:37.992Z,14.47
2019-06-01T05:31:19.843Z,13.32
2019-06-01T05:31:49.454Z,12.95
2019-06-01T05:32:24.160Z,14.00
2019-06-01T05:32:59.006Z,13.40
2019-06-01T05:33:37.619Z,12.82
2019-06-01T05:34:10.130Z,14.05
2019-06-01T05:34:45.135Z,12.80
2019-06-01T05:35:19.907Z,12.43
2019-06-01T05:35:54.524Z,12.73
2019-06-01T05:36:29.430Z,20.27
2019-06-01T05:37:03.876Z,14.43
2019-06-01T05:37:38.605Z,15.00
2019-06-01T05:38:14.258Z,16.12
2019-06-01T05:38:48.899Z,10.55
2019-06-01T05:39:23.667Z,13.48
2019-06-01T05:39:58.403Z,12.00
2019-06-01T05:40:33.098Z,16.55
2019-06-01T05:41:09.965Z,12.33
2019-06-01T05:42:03.354Z,14.20
2019-06-01T05:42:37.857Z,12.53
2019-06-01T05:43:14.891Z,16.42
2019-06-01T05:43:48.947Z,17.32
2019-06-01T05:44:23.379Z,15.08
2019-06-01T05:44:58.080Z,16.65
2019-06-01T05:45:33.165Z,14.43
2019-06-01T05:46:07.568Z,14.07
2019-06-01T05:46:42.105Z,15.35
2019-06-01T05:47:16.933Z,19.55
2019-06-01T05:47:51.421Z,15.18
2019-06-01T05:48:30.426Z,15.93
2019-06-01T05:49:02.521Z,15.50
2019-06-01T05:49:36.847Z,16.30
2019-06-01T05:50:12.247Z,18.20
2019-06-01T05:50:47.040Z,16.32
2019-06-01T05:51:21.315Z,17.87
2019-06-01T05:51:55.884Z,19.35
2019-06-01T05:52:30.655Z,18.27
2019-06-01T05:53:05.179Z,18.10
2019-06-01T05:53:39.715Z,17.55
2019-06-01T05:54:14.621Z,15.68
2019-06-01T05:54:48.995Z,16.62
2019-06-01T05:55:23.801Z,17.20
2019-06-01T05:55:58.818Z,19.12
2019-06-01T05:56:33.365Z,21.05
2019-06-01T05:57:07.967Z,17.30
2019-06-01T05:57:43.199Z,16.40
2019-06-01T05:58:19.493Z,20.02
2019-06-01T05:58:54.529Z,22.80
2019-06-01T05:59:29.510Z,16.35
2019-06-01T06:00:04.194Z,16.85
2019-06-01T06:00:41.082Z,17.42
2019-06-01T06:01:16.465Z,21.77
2019-06-01T06:01:50.868Z,16.62
2019-06-01T06:02:25.637Z,14.58
2019-06-01T06:03:00.596Z,15.15
2019-06-01T06:03:40.426Z,18.40
2019-06-01T06:04:11.404Z,18.50
2019-06-01T06:04:46.392Z,18.95
2019-06-01T06:05:20.876Z,17.62
2019-06-01T06:05:55.688Z,14.07
2019-06-01T06:06:30.573Z,15.00
2019-06-01T06:07:05.121Z,14.18
2019-06-01T06:07:39.806Z,14.40
2019-06-01T06:08:14.870Z,13.88
2019-06-01T06:08:50.247Z,15.35
2019-06-01T06:09:24.975Z,16.25
2019-06-01T06:10:00.390Z,14.13
2019-06-01T06:10:34.981Z,16.62
2019-06-01T06:11:10.745Z,13.48
2019-06-01T06:11:45.732Z,12.93
2019-06-01T06:12:21.511Z,12.85
2019-06-01T06:12:56.352Z,13.20
2019-06-01T06:13:31.174Z,13.32
2019-06-01T06:14:05.917Z,14.53
2019-06-01T06:14:40.463Z,11.88
2019-06-01T06:15:15.677Z,16.30
2019-06-01T06:15:50.239Z,11.88
2019-06-01T06:16:24.925Z,12.23
2019-06-01T06:16:59.823Z,14.73
2019-06-01T06:17:34.443Z,9.43
2019-06-01T06:18:09.195Z,11.00
2019-06-01T06:18:44.197Z,11.93
2019-06-01T06:19:21.116Z,13.85
2019-06-01T06:19:55.133Z,12.47
2019-06-01T06:20:31.002Z,9.88
2019-06-01T06:21:05.598Z,13.32
2019-06-01T06:21:40.210Z,9.55
2019-06-01T06:22:16.117Z,10.65
2019-06-01T06:22:50.558Z,9.63
2019-06-01T06:23:25.281Z,10.72
2019-06-01T06:24:00.134Z,10.25
2019-06-01T06:24:34.614Z,9.80
2019-06-01T06:25:09.393Z,9.65
2019-06-01T06:25:44.259Z,10.75
2019-06-01T06:26:20.087Z,10.88
2019-06-01T06:26:55.111Z,11.93
2019-06-01T06:27:30.167Z,13.18
2019-06-01T06:28:04.589Z,9.93
2019-06-01T06:28:39.291Z,13.85
2019-06-01T06:29:14.741Z,10.18
2019-06-01T06:29:49.309Z,9.55
2019-06-01T06:30:24.115Z,9.90
2019-06-01T06:30:59.065Z,9.68
2019-06-01T06:31:33.475Z,14.40
2019-06-01T06:32:09.305Z,10.60
2019-06-01T06:32:44.436Z,11.45
2019-06-01T06:33:19.377Z,12.03
2019-06-01T06:33:56.969Z,10.80
2019-06-01T06:34:30.604Z,8.80
2019-06-01T06:35:05.965Z,8.90
2019-06-01T06:35:40.483Z,8.50
2019-06-01T06:36:15.672Z,11.50
2019-06-01T06:36:50.187Z,8.15
2019-06-01T06:37:24.808Z,12.75
2019-06-01T06:37:59.553Z,8.00
2019-06-01T06:38:33.982Z,10.03
2019-06-01T06:39:09.107Z,11.93
2019-06-01T06:39:44.102Z,13.22
2019-06-01T06:40:20.129Z,10.13
2019-06-01T06:40:54.849Z,11.18
2019-06-01T06:41:29.899Z,7.60
2019-06-01T06:42:04.561Z,9.08
2019-06-01T06:42:39.371Z,10.82
2019-06-01T06:43:22.151Z,9.33
2019-06-01T06:43:50.423Z,11.50
2019-06-01T06:44:25.094Z,8.60
2019-06-01T06:45:02.911Z,10.90
2019-06-01T06:45:36.197Z,10.50
2019-06-01T06:46:10.868Z,8.20
2019-06-01T06:46:45.736Z,8.13
2019-06-01T06:47:20.905Z,8.40
2019-06-01T06:47:57.776Z,8.75
2019-06-01T06:48:36.970Z,8.35
2019-06-01T06:49:11.474Z,9.33
2019-06-01T06:49:46.035Z,8.60
2019-06-01T06:50:21.431Z,11.48
2019-06-01T06:50:55.792Z,8.58
2019-06-01T06:51:30.455Z,9.23
2019-06-01T06:52:07.016Z,9.63
2019-06-01T06:52:41.345Z,10.85
2019-06-01T06:53:25.353Z,7.15
2019-06-01T06:53:52.463Z,7.87
2019-06-01T06:54:26.993Z,11.05
2019-06-01T06:55:01.724Z,8.98
2019-06-01T06:55:36.765Z,8.25
2019-06-01T06:56:11.031Z,10.05
2019-06-01T06:56:45.577Z,7.95
2019-06-01T06:57:20.345Z,10.10
2019-06-01T06:57:54.976Z,10.00
2019-06-01T06:58:29.611Z,10.98
2019-06-01T06:59:04.704Z,9.50
2019-06-01T06:59:39.317Z,12.60
2019-06-01T07:00:14.973Z,13.15
2019-06-01T07:00:50.065Z,12.78
2019-06-01T07:01:24.888Z,12.28
2019-06-01T07:01:59.604Z,9.70
2019-06-01T07:02:34.455Z,12.80
2019-06-01T07:03:09.006Z,9.88
2019-06-01T07:03:43.774Z,12.75
2019-06-01T07:04:19.270Z,9.58
2019-06-01T07:04:53.972Z,11.08
2019-06-01T07:05:31.383Z,10.40
2019-06-01T07:06:05.354Z,11.07
2019-06-01T07:06:39.693Z,11.13
2019-06-01T07:07:14.331Z,11.10
2019-06-01T07:07:49.126Z,17.93
2019-06-01T07:08:23.920Z,11.80
2019-06-01T07:08:58.675Z,10.97
2019-06-01T07:09:33.506Z,11.97
2019-06-01T07:10:08.182Z,14.00
2019-06-01T07:10:42.912Z,9.13
2019-06-01T07:11:19.058Z,9.57
2019-06-01T07:11:53.621Z,11.20
2019-06-01T07:12:28.217Z,12.87
2019-06-01T07:13:03.256Z,9.77
2019-06-01T07:13:37.704Z,13.63
2019-06-01T07:14:12.414Z,10.53
2019-06-01T07:14:47.299Z,12.53
2019-06-01T07:15:21.876Z,11.00
2019-06-01T07:15:56.689Z,9.13
2019-06-01T07:16:31.872Z,12.60
2019-06-01T07:17:06.415Z,9.40
2019-06-01T07:17:40.972Z,11.20
2019-06-01T07:18:15.754Z,13.60
2019-06-01T07:18:50.109Z,12.27
2019-06-01T07:19:25.724Z,15.47
2019-06-01T07:20:00.605Z,11.40
2019-06-01T07:20:35.205Z,11.67
2019-06-01T07:21:09.818Z,8.60
2019-06-01T07:21:44.487Z,8.03
2019-06-01T07:22:19.747Z,9.27
2019-06-01T07:22:54.273Z,9.40
2019-06-01T07:23:29.142Z,8.83
2019-06-01T07:24:03.452Z,12.30
2019-06-01T07:24:37.949Z,8.90
2019-06-01T07:25:12.977Z,9.43
2019-06-01T07:25:47.388Z,12.50
2019-06-01T07:26:22.016Z,11.13
2019-06-01T07:26:56.829Z,12.23
2019-06-01T07:27:32.336Z,12.93
2019-06-01T07:28:07.124Z,9.73
2019-06-01T07:28:44.529Z,10.63
2019-06-01T07:29:18.223Z,10.57
2019-06-01T07:29:53.070Z,15.23
2019-06-01T07:30:28.461Z,14.63
2019-06-01T07:31:03.006Z,11.13
2019-06-01T07:31:37.771Z,10.53
2019-06-01T07:32:12.697Z,13.63
2019-06-01T07:32:47.106Z,14.03
2019-06-01T07:33:22.437Z,16.07
2019-06-01T07:33:57.458Z,11.00